createdAt,value
2022-10-21T00:00:31.971Z,37.83
2022-10-21T00:02:58.800Z,36.10
2022-10-21T00:05:25.704Z,37.23
2022-10-21T00:07:52.564Z,35.53
2022-10-21T00:10:20.108Z,37.03
2022-10-21T00:12:47.061Z,38.50
2022-10-21T00:15:14.038Z,38.17
2022-10-21T00:17:43.242Z,35.03
2022-10-21T00:20:12.189Z,36.07
2022-10-21T00:22:39.549Z,37.47
2022-10-21T00:25:06.948Z,35.23
2022-10-21T00:27:33.972Z,35.13
2022-10-21T00:30:00.989Z,35.63
2022-10-21T00:32:28.089Z,38.13
2022-10-21T00:34:54.961Z,37.13
2022-10-21T00:37:21.760Z,37.13
2022-10-21T00:39:48.656Z,37.03
2022-10-21T00:42:23.266Z,35.17
2022-10-21T00:45:54.962Z,37.17
2022-10-21T00:48:38.460Z,33.00
2022-10-21T00:51:14.681Z,33.77
2022-10-21T00:53:46.667Z,32.80
2022-10-21T00:56:24.113Z,32.50
2022-10-21T00:58:54.014Z,33.90
2022-10-21T01:05:26.506Z,34.77
2022-10-21T01:07:53.716Z,31.70
2022-10-21T01:10:20.647Z,34.30
2022-10-21T01:13:28.511Z,34.37
2022-10-21T01:16:23.270Z,35.00
2022-10-21T01:19:11.099Z,34.30
2022-10-21T01:21:51.843Z,36.93
2022-10-21T01:24:46.405Z,32.77
2022-10-21T01:27:26.384Z,36.03
2022-10-21T01:30:14.291Z,34.53
2022-10-21T01:33:04.898Z,33.00
2022-10-21T01:35:55.560Z,32.30
2022-10-21T01:38:48.242Z,35.83
2022-10-21T01:41:40.366Z,35.27
2022-10-21T01:44:22.434Z,33.77
2022-10-21T01:46:55.913Z,34.20
2022-10-21T01:49:38.789Z,35.33
2022-10-21T01:52:07.485Z,36.57
2022-10-21T01:54:39.851Z,34.47
2022-10-21T01:57:08.873Z,35.73
2022-10-21T01:59:36.512Z,37.07
2022-10-21T02:02:06.254Z,38.77
2022-10-21T02:04:35.972Z,33.63
2022-10-21T02:07:03.148Z,30.27
2022-10-21T02:12:04.618Z,35.90
2022-10-21T02:14:36.361Z,33.37
2022-10-21T02:17:04.052Z,33.63
2022-10-21T02:22:05.572Z,33.77
2022-10-21T02:24:51.505Z,35.33
2022-10-21T02:27:19.425Z,35.00
2022-10-21T02:29:48.255Z,39.90
2022-10-21T02:32:20.774Z,38.07
2022-10-21T02:35:25.763Z,37.40
2022-10-21T02:38:10.670Z,33.97
2022-10-21T02:40:48.070Z,41.33
2022-10-21T02:43:44.269Z,37.73
2022-10-21T02:46:13.428Z,39.77
2022-10-21T02:48:44.015Z,35.63
2022-10-21T02:51:11.177Z,36.27
2022-10-21T02:53:38.136Z,39.43
2022-10-21T02:56:05.289Z,40.00
2022-10-21T02:58:32.230Z,39.50
2022-10-21T03:00:59.236Z,40.80
2022-10-21T03:03:26.346Z,36.97
2022-10-21T03:05:53.224Z,39.53
2022-10-21T03:08:20.138Z,40.50
2022-10-21T03:10:53.018Z,41.50
2022-10-21T03:13:21.499Z,36.97
2022-10-21T03:15:49.816Z,39.80
2022-10-21T03:18:17.248Z,39.27
2022-10-21T03:20:44.322Z,38.17
2022-10-21T03:23:11.131Z,40.57
2022-10-21T03:25:38.144Z,42.20
2022-10-21T03:28:05.341Z,46.63
2022-10-21T03:30:32.444Z,39.57
2022-10-21T03:32:59.321Z,41.97
2022-10-21T03:35:26.723Z,40.77
2022-10-21T03:37:53.821Z,38.13
2022-10-21T03:40:20.983Z,41.27
2022-10-21T03:42:47.852Z,43.40
2022-10-21T03:45:14.712Z,41.50
2022-10-21T03:47:41.607Z,41.60
2022-10-21T03:50:13.094Z,44.33
2022-10-21T03:52:42.587Z,41.90
2022-10-21T03:55:09.606Z,48.03
2022-10-21T03:57:36.587Z,39.17
2022-10-21T04:00:04.422Z,39.07
2022-10-21T04:02:39.903Z,38.67
2022-10-21T04:05:07.683Z,39.17
2022-10-21T04:07:34.525Z,40.60
2022-10-21T04:10:01.561Z,40.53
2022-10-21T04:12:28.500Z,41.13
2022-10-21T04:15:14.150Z,41.57
2022-10-21T04:17:41.542Z,39.23
2022-10-21T04:20:09.149Z,35.13
2022-10-21T04:22:36.361Z,37.10
2022-10-21T04:25:04.810Z,37.80
2022-10-21T04:27:31.900Z,39.60
2022-10-21T04:29:58.844Z,35.07
2022-10-21T04:32:25.871Z,37.40
2022-10-21T04:34:52.675Z,36.20
2022-10-21T04:37:19.520Z,38.40
2022-10-21T04:39:46.397Z,36.37
2022-10-21T04:42:13.276Z,31.83
2022-10-21T04:44:40.152Z,35.60
2022-10-21T04:47:07.270Z,38.03
2022-10-21T04:49:34.315Z,38.83
2022-10-21T04:52:01.259Z,35.17
2022-10-21T04:54:28.136Z,35.83
2022-10-21T04:56:55.056Z,36.10
2022-10-21T04:59:21.876Z,37.00
2022-10-21T05:01:48.749Z,33.10
2022-10-21T05:04:15.671Z,34.10
2022-10-21T05:06:42.743Z,40.03
2022-10-21T05:09:10.219Z,35.10
2022-10-21T05:11:37.197Z,36.07
2022-10-21T05:14:04.102Z,35.90
2022-10-21T05:16:31.108Z,34.97
2022-10-21T05:18:57.974Z,33.87
2022-10-21T05:21:24.908Z,35.57
2022-10-21T05:23:51.809Z,32.90
2022-10-21T05:26:18.724Z,35.73
2022-10-21T05:28:45.538Z,31.97
2022-10-21T05:31:12.630Z,38.50
2022-10-21T05:33:39.513Z,38.47
2022-10-21T05:36:08.605Z,43.73
2022-10-21T05:38:35.740Z,35.93
2022-10-21T05:41:02.709Z,34.87
2022-10-21T05:43:29.776Z,34.50
2022-10-21T05:45:57.364Z,35.97
2022-10-21T05:48:24.923Z,34.03
2022-10-21T05:50:54.832Z,33.60
2022-10-21T05:53:26.486Z,36.90
2022-10-21T05:55:57.087Z,34.63
2022-10-21T05:58:25.684Z,39.50
2022-10-21T06:00:56.949Z,36.13
2022-10-21T06:03:31.765Z,31.47
2022-10-21T06:06:00.238Z,33.80
2022-10-21T06:08:28.803Z,33.20
2022-10-21T06:11:06.242Z,35.93
2022-10-21T06:13:34.212Z,33.17
2022-10-21T06:16:01.317Z,31.53
2022-10-21T06:18:28.631Z,32.83
2022-10-21T06:20:55.890Z,35.10
2022-10-21T06:23:22.956Z,35.97
2022-10-21T06:25:58.079Z,33.87
2022-10-21T06:28:25.818Z,28.50
2022-10-21T06:30:52.689Z,33.13
2022-10-21T06:33:24.568Z,31.30
2022-10-21T06:35:54.236Z,34.47
2022-10-21T06:38:21.550Z,29.63
2022-10-21T06:40:48.922Z,31.63
2022-10-21T06:43:16.452Z,30.07
2022-10-21T06:45:43.756Z,28.83
2022-10-21T06:48:11.030Z,28.20
2022-10-21T06:50:38.284Z,29.30
2022-10-21T06:53:05.522Z,29.90
2022-10-21T06:55:32.422Z,33.83
2022-10-21T06:58:00.052Z,29.83
2022-10-21T07:00:27.135Z,27.53
2022-10-21T07:02:54.091Z,27.80
2022-10-21T07:05:21.077Z,30.33
2022-10-21T07:07:47.952Z,29.33
2022-10-21T07:10:14.868Z,28.60
2022-10-21T07:12:41.793Z,29.53
2022-10-21T07:15:09.070Z,28.27
2022-10-21T07:17:36.249Z,26.80
2022-10-21T07:20:03.608Z,26.17
2022-10-21T07:22:31.900Z,24.90
2022-10-21T07:24:58.752Z,26.30
2022-10-21T07:27:25.696Z,28.43
2022-10-21T07:29:52.597Z,29.10
2022-10-21T07:32:19.568Z,29.30
2022-10-21T07:34:46.419Z,24.90
2022-10-21T07:37:13.331Z,27.53
2022-10-21T07:39:40.291Z,26.03
2022-10-21T07:42:07.273Z,24.33
2022-10-21T07:44:34.249Z,24.50
2022-10-21T07:47:01.265Z,23.17
2022-10-21T07:49:29.729Z,26.58
2022-10-21T07:51:56.940Z,25.17
2022-10-21T07:54:23.944Z,24.30
2022-10-21T07:56:52.011Z,23.53
2022-10-21T07:59:21.067Z,23.57
2022-10-21T08:04:25.160Z,23.00
2022-10-21T08:06:52.161Z,22.90
2022-10-21T08:09:19.175Z,25.33
2022-10-21T08:11:46.377Z,25.20
2022-10-21T08:14:13.259Z,25.57
2022-10-21T08:16:40.876Z,20.97
2022-10-21T08:19:08.369Z,22.83
2022-10-21T08:21:37.020Z,22.80
2022-10-21T08:24:04.284Z,26.13
2022-10-21T08:26:32.008Z,24.43
2022-10-21T08:31:31.008Z,28.33
2022-10-21T08:33:59.120Z,24.73
2022-10-21T08:36:26.759Z,22.53
2022-10-21T08:38:54.496Z,25.07
2022-10-21T08:41:30.300Z,23.73
2022-10-21T08:44:05.752Z,27.93
2022-10-21T08:46:39.113Z,24.00
2022-10-21T08:49:15.393Z,23.73
2022-10-21T08:52:12.393Z,23.80
2022-10-21T08:54:47.822Z,20.40
2022-10-21T08:57:15.551Z,21.88
2022-10-21T08:59:43.224Z,21.03
2022-10-21T09:02:12.887Z,21.15
2022-10-21T09:04:52.865Z,21.37
2022-10-21T09:07:37.806Z,22.47
2022-10-21T09:10:17.169Z,21.40
2022-10-21T09:13:10.041Z,18.93
2022-10-21T09:15:52.380Z,26.37
2022-10-21T09:18:37.336Z,20.27
2022-10-21T09:21:12.914Z,19.73
2022-10-21T09:23:52.228Z,19.03
2022-10-21T09:26:41.902Z,18.73
2022-10-21T09:29:35.675Z,19.70
2022-10-21T09:32:15.662Z,17.38
2022-10-21T09:35:19.855Z,20.17
2022-10-21T09:38:02.324Z,18.17
2022-10-21T09:40:31.278Z,19.50
2022-10-21T09:42:59.737Z,20.40
2022-10-21T09:45:46.448Z,18.23
2022-10-21T09:48:19.187Z,19.23
2022-10-21T09:50:53.482Z,20.27
2022-10-21T09:53:34.385Z,18.93
2022-10-21T09:56:11.665Z,18.30
2022-10-21T09:58:38.447Z,18.57
2022-10-21T10:01:08.188Z,18.53
2022-10-21T10:03:42.138Z,20.60
2022-10-21T10:06:09.446Z,19.27
2022-10-21T10:08:38.515Z,20.30
2022-10-21T10:11:11.571Z,19.50
2022-10-21T10:13:39.715Z,18.03
2022-10-21T10:16:22.444Z,19.37
2022-10-21T10:18:51.782Z,17.70
2022-10-21T10:21:20.869Z,19.37
2022-10-21T10:23:55.832Z,19.77
2022-10-21T10:26:35.124Z,18.97
2022-10-21T10:29:15.812Z,21.87
2022-10-21T10:31:50.710Z,20.27
2022-10-21T10:34:31.378Z,25.20
2022-10-21T10:37:08.082Z,21.33
2022-10-21T10:39:38.856Z,22.63
2022-10-21T10:42:07.322Z,21.60
2022-10-21T10:44:41.334Z,21.87
2022-10-21T10:47:19.574Z,19.83
2022-10-21T10:49:46.875Z,18.53
2022-10-21T10:52:13.745Z,18.97
2022-10-21T10:54:42.295Z,18.40
2022-10-21T10:57:15.458Z,19.67
2022-10-21T11:00:03.565Z,19.07
2022-10-21T11:03:01.133Z,23.63
2022-10-21T11:05:37.584Z,19.77
2022-10-21T11:08:29.717Z,18.93
2022-10-21T11:11:11.273Z,19.93
2022-10-21T11:13:42.078Z,17.93
2022-10-21T11:16:59.696Z,20.90
2022-10-21T11:19:43.396Z,18.53
2022-10-21T11:22:13.645Z,22.53
2022-10-21T11:28:31.224Z,20.60
2022-10-21T11:31:10.061Z,20.97
2022-10-21T11:33:40.499Z,18.50
2022-10-21T11:36:20.194Z,19.73
2022-10-21T11:39:21.570Z,20.10
2022-10-21T11:42:27.443Z,20.67
2022-10-21T11:45:22.296Z,18.23
2022-10-21T11:48:14.600Z,18.90
2022-10-21T11:51:06.480Z,17.70
2022-10-21T11:53:49.064Z,20.07
2022-10-21T11:56:22.702Z,22.87
2022-10-21T11:59:14.372Z,17.60
2022-10-21T12:02:05.761Z,19.83
2022-10-21T12:04:44.719Z,22.90
2022-10-21T12:07:29.134Z,21.13
2022-10-21T12:09:56.086Z,17.60
2022-10-21T12:12:37.467Z,18.50
2022-10-21T12:15:20.489Z,21.13
2022-10-21T12:17:51.326Z,17.70
2022-10-21T12:20:27.233Z,17.13
2022-10-21T12:23:01.087Z,20.90
2022-10-21T12:25:39.206Z,16.63
2022-10-21T12:28:30.572Z,17.97
2022-10-21T12:31:28.830Z,20.33
2022-10-21T12:33:57.842Z,19.07
2022-10-21T12:36:41.836Z,17.67
2022-10-21T12:39:34.285Z,17.07
2022-10-21T12:42:30.516Z,16.60
2022-10-21T12:44:57.470Z,14.13
2022-10-21T12:47:33.318Z,16.10
2022-10-21T12:50:22.361Z,16.03
2022-10-21T12:53:19.990Z,16.07
2022-10-21T12:55:54.151Z,15.33
2022-10-21T12:58:39.142Z,16.33
2022-10-21T13:01:45.107Z,16.83
2022-10-21T13:04:37.721Z,18.60
2022-10-21T13:07:19.539Z,13.73
2022-10-21T13:09:51.917Z,17.27
2022-10-21T13:12:32.395Z,14.50
2022-10-21T13:15:42.589Z,18.67
2022-10-21T13:18:12.890Z,21.70
2022-10-21T13:20:47.156Z,18.50
2022-10-21T13:23:37.013Z,18.23
2022-10-21T13:26:22.332Z,19.43
2022-10-21T13:29:02.725Z,15.80
2022-10-21T13:31:31.552Z,17.73
2022-10-21T13:34:00.256Z,20.10
2022-10-21T13:36:45.155Z,19.33
2022-10-21T13:39:34.469Z,16.70
2022-10-21T13:42:15.537Z,19.00
2022-10-21T13:44:52.641Z,19.67
2022-10-21T13:47:19.458Z,14.07
2022-10-21T13:49:55.597Z,20.47
2022-10-21T13:52:28.964Z,14.60
2022-10-21T13:55:03.243Z,13.10
2022-10-21T13:57:34.133Z,23.10
2022-10-21T14:00:17.143Z,16.80
2022-10-21T14:03:00.907Z,16.97
2022-10-21T14:05:41.432Z,17.33
2022-10-21T14:08:32.065Z,16.93
2022-10-21T14:11:02.155Z,15.73
2022-10-21T14:13:35.735Z,14.10
2022-10-21T14:16:04.203Z,16.17
2022-10-21T14:18:38.326Z,15.33
2022-10-21T14:21:06.472Z,15.23
2022-10-21T14:23:34.591Z,13.57
2022-10-21T14:26:10.776Z,15.37
2022-10-21T14:28:38.193Z,19.00
2022-10-21T14:33:48.539Z,14.30
2022-10-21T14:36:25.472Z,14.50
2022-10-21T14:38:59.150Z,14.37
2022-10-21T14:41:34.363Z,18.40
2022-10-21T14:44:20.128Z,16.47
2022-10-21T14:46:49.717Z,16.57
2022-10-21T14:49:23.876Z,17.50
2022-10-21T14:51:59.253Z,16.60
2022-10-21T14:54:44.820Z,15.67
2022-10-21T14:57:43.618Z,16.40
2022-10-21T15:00:44.651Z,17.93
2022-10-21T15:03:13.011Z,16.23
2022-10-21T15:05:49.044Z,14.20
2022-10-21T15:08:20.774Z,17.63
2022-10-21T15:11:09.135Z,17.57
2022-10-21T15:14:05.988Z,16.57
2022-10-21T15:16:37.129Z,16.57
2022-10-21T15:19:23.825Z,18.30
2022-10-21T15:22:01.575Z,21.07
2022-10-21T15:24:43.546Z,17.13
2022-10-21T15:27:19.210Z,14.63
2022-10-21T15:29:48.425Z,19.57
2022-10-21T15:32:25.631Z,13.10
2022-10-21T15:35:01.405Z,16.67
2022-10-21T15:37:31.171Z,15.23
2022-10-21T15:40:02.192Z,19.17
2022-10-21T15:42:33.833Z,24.57
2022-10-21T15:45:07.211Z,17.00
2022-10-21T15:47:38.465Z,19.63
2022-10-21T15:50:45.228Z,17.33
2022-10-21T15:53:13.651Z,20.43
2022-10-21T15:55:48.588Z,18.30
2022-10-21T15:58:19.180Z,21.47
2022-10-21T16:00:46.999Z,20.77
2022-10-21T16:03:18.157Z,17.43
2022-10-21T16:05:48.604Z,17.83
2022-10-21T16:08:17.952Z,18.63
2022-10-21T16:10:50.018Z,19.37
2022-10-21T16:13:24.738Z,19.73
2022-10-21T16:15:54.356Z,18.00
2022-10-21T16:18:21.913Z,20.37
2022-10-21T16:20:49.771Z,21.73
2022-10-21T16:23:20.407Z,21.03
2022-10-21T16:25:49.511Z,19.80
2022-10-21T16:28:19.132Z,21.67
2022-10-21T16:30:49.523Z,21.43
2022-10-21T16:33:16.978Z,24.17
2022-10-21T16:35:50.744Z,22.07
2022-10-21T16:38:22.054Z,24.63
2022-10-21T16:40:48.971Z,23.57
2022-10-21T16:43:16.407Z,21.70
2022-10-21T16:45:46.910Z,21.63
2022-10-21T16:48:14.526Z,24.10
2022-10-21T16:50:46.594Z,20.27
2022-10-21T16:53:16.692Z,23.43
2022-10-21T16:55:51.844Z,22.80
2022-10-21T16:58:20.203Z,24.30
2022-10-21T17:00:48.741Z,25.10
2022-10-21T17:03:17.922Z,24.97
2022-10-21T17:05:44.872Z,23.23
2022-10-21T17:08:11.842Z,24.77
2022-10-21T17:10:42.291Z,24.60
2022-10-21T17:13:10.172Z,30.83
2022-10-21T17:15:38.820Z,24.43
2022-10-21T17:18:11.778Z,24.07
2022-10-21T17:20:45.135Z,23.30
2022-10-21T17:23:13.343Z,25.70
2022-10-21T17:25:41.066Z,23.73
2022-10-21T17:28:08.942Z,23.70
2022-10-21T17:30:42.114Z,28.77
2022-10-21T17:33:14.257Z,27.23
2022-10-21T17:35:48.550Z,26.17
2022-10-21T17:38:25.283Z,23.10
2022-10-21T17:41:04.562Z,23.27
2022-10-21T17:43:31.773Z,27.67
2022-10-21T17:45:58.646Z,26.50
